Portada
METAR-TAF:

METAR-TAF

Aeroports :

Simla, Índia

latitud: 31-04-54N, longitud: 77-04-05E, altitud: 1546 m

Observació

L'informe es va fer fa 36 hores i 16 minuts, a les 07:00 UTC
Vent calma
Temperatura 22°C
Humitat 60%
Pressió 1023 hPa
Visibilitat: 5000 m
Escasses núvols a una alçada de 3000 ft

METAR: VISM 150700Z 00000KT 5000 FEW030 22/14 Q1023

Hora: 00:46 (19:16 UTC)

Pronòstic

L'informe es va fer fa 20 hores i 16 minuts, a les 23:00 UTC
Pronòstic vàlid del 16 a les 00 UTC al 16 a les 09 UTC
Vent 3 kt del Oest
Visibilitat: 5000 m
Escasses núvols a una alçada de 3000 ft
boirina, calitja

TAF: VISM 152300Z 1600/1609 27003KT 5000 BR HZ FEW030

Observacions i pronòstics meteorològics de més de 4000 aeroports (METAR i TAF).

Les estacions disponibles són els punts grocs i vermells al mapa.

Posi el ratolí al punt desitjat per veure el nom de l'estació.

Feu clic per veure les observacions i els pronòstics meteorològics.

Per canviar el mapa: feu clic els botons verds amb una creu de color negre per apropar; al botó verd amb un guió per allunyar la imatge; o en les fletxes verdes per a mapes adjacents.


METAR-TAF: